Fairgrounds, Vermont
Current Conditions -  °F | °C
As of 7:15 AM on Friday 28 Nov 2014 (Local Time) from KFSO Reporting Station
Overcast Overcast  
Wind Chill: 23°   Ceiling: 9500
Heat Index: 23°   Visibility: 10mi
Dew Point: 19°   Wind: 0mph
Humidity: 86%   Direction: NA
Pressure: 30.08"   Gusts: NA
Location:  44.8776°N, 72.9201°W
Report Text: KFSO 281215Z AUTO 00000KT 10SM SCT037 SCT075 OVC095 M05/M07 A3008 RMK AO2 T10501070
Loading
Personal Weather Stations






























Interactive Weather Map New forecast layout! Learn more

10-Day Weather Forecast

Advertisements
Track Severe Weather on mobile